createdAt,value
2017-10-18T00:00:12.065Z,101364
2017-10-18T00:02:38.360Z,101351
2017-10-18T00:05:05.391Z,101352
2017-10-18T00:07:31.670Z,101357
2017-10-18T00:09:57.941Z,101356
2017-10-18T00:12:24.275Z,101356
2017-10-18T00:14:50.557Z,101348
2017-10-18T00:17:16.847Z,101350
2017-10-18T00:19:44.131Z,101353
2017-10-18T00:22:10.390Z,101353
2017-10-18T00:24:36.689Z,101347
2017-10-18T00:27:02.988Z,101354
2017-10-18T00:29:29.272Z,101360
2017-10-18T00:31:55.588Z,101344
2017-10-18T00:34:21.881Z,101333
2017-10-18T00:36:48.180Z,101336
2017-10-18T00:39:14.493Z,101344
2017-10-18T00:41:40.806Z,101339
2017-10-18T00:44:07.136Z,101324
2017-10-18T00:46:33.671Z,101325
2017-10-18T00:48:59.983Z,101325
2017-10-18T00:51:26.289Z,101329
2017-10-18T00:53:52.648Z,101327
2017-10-18T00:56:19.674Z,101320
2017-10-18T00:58:46.708Z,101318
2017-10-18T01:01:13.014Z,101319
2017-10-18T01:03:39.324Z,101317
2017-10-18T01:06:05.633Z,101322
2017-10-18T01:08:31.931Z,101327
2017-10-18T01:10:58.485Z,101324
2017-10-18T01:13:25.484Z,101313
2017-10-18T01:15:51.926Z,101309
2017-10-18T01:18:18.247Z,101323
2017-10-18T01:20:44.576Z,101318
2017-10-18T01:23:10.879Z,101320
2017-10-18T01:25:37.136Z,101314
2017-10-18T01:28:03.421Z,101314
2017-10-18T01:30:29.785Z,101309
2017-10-18T01:32:56.094Z,101319
2017-10-18T01:35:22.393Z,101324
2017-10-18T01:37:49.413Z,101320
2017-10-18T01:40:15.705Z,101309
2017-10-18T01:42:42.006Z,101305
2017-10-18T01:45:09.038Z,101313
2017-10-18T01:47:35.347Z,101321
2017-10-18T01:50:01.693Z,101311
2017-10-18T01:52:28.033Z,101294
2017-10-18T01:54:55.063Z,101305
2017-10-18T01:57:21.357Z,101312
2017-10-18T01:59:47.750Z,101311
2017-10-18T02:02:14.794Z,101299
2017-10-18T02:04:41.808Z,101310
2017-10-18T02:07:08.105Z,101305
2017-10-18T02:09:34.459Z,101304
2017-10-18T02:12:00.975Z,101309
2017-10-18T02:14:27.269Z,101309
2017-10-18T02:16:54.294Z,101293
2017-10-18T02:19:20.637Z,101297
2017-10-18T02:21:47.678Z,101308
2017-10-18T02:24:13.957Z,101300
2017-10-18T02:26:40.264Z,101301
2017-10-18T02:29:07.316Z,101296
2017-10-18T02:31:33.582Z,101300
2017-10-18T02:34:00.069Z,101294
2017-10-18T02:36:27.145Z,101292
2017-10-18T02:38:53.430Z,101292
2017-10-18T02:41:19.926Z,101288
2017-10-18T02:43:46.223Z,101278
2017-10-18T02:46:12.533Z,101288
2017-10-18T02:48:39.614Z,101285
2017-10-18T02:51:05.898Z,101278
2017-10-18T02:53:32.371Z,101278
2017-10-18T02:55:58.674Z,101288
2017-10-18T02:58:25.718Z,101286
2017-10-18T03:00:53.013Z,101277
2017-10-18T03:03:19.280Z,101277
2017-10-18T03:05:45.547Z,101273
2017-10-18T03:08:11.813Z,101273
2017-10-18T03:10:38.094Z,101274
2017-10-18T03:13:05.269Z,101270
2017-10-18T03:15:31.581Z,101268
2017-10-18T03:17:57.860Z,101271
2017-10-18T03:20:24.188Z,101273
2017-10-18T03:22:50.545Z,101283
2017-10-18T03:25:16.873Z,101272
2017-10-18T03:27:43.285Z,101269
2017-10-18T03:30:09.596Z,101270
2017-10-18T03:32:35.944Z,101278
2017-10-18T03:35:02.334Z,101273
2017-10-18T03:37:28.678Z,101268
2017-10-18T03:39:55.049Z,101273
2017-10-18T03:42:21.550Z,101269
2017-10-18T03:44:47.837Z,101278
2017-10-18T03:47:14.865Z,101275
2017-10-18T03:49:41.179Z,101280
2017-10-18T03:52:07.440Z,101273
2017-10-18T03:54:34.483Z,101276
2017-10-18T03:57:01.124Z,101272
2017-10-18T03:59:28.193Z,101268
2017-10-18T04:01:54.467Z,101265
2017-10-18T04:04:20.806Z,101269
2017-10-18T04:06:47.109Z,101262
2017-10-18T04:09:13.414Z,101267
2017-10-18T04:11:39.740Z,101256
2017-10-18T04:14:06.025Z,101251
2017-10-18T04:16:32.335Z,101261
2017-10-18T04:18:58.850Z,101264
2017-10-18T04:21:25.137Z,101258
2017-10-18T04:23:51.416Z,101253
2017-10-18T04:26:17.728Z,101264
2017-10-18T04:28:44.024Z,101257
2017-10-18T04:31:10.304Z,101253
2017-10-18T04:33:36.626Z,101258
2017-10-18T04:36:02.972Z,101253
2017-10-18T04:38:29.333Z,101258
2017-10-18T04:40:55.622Z,101256
2017-10-18T04:43:21.937Z,101259
2017-10-18T04:45:48.485Z,101255
2017-10-18T04:48:14.825Z,101252
2017-10-18T04:50:41.197Z,101257
2017-10-18T04:53:07.705Z,101259
2017-10-18T04:55:33.998Z,101252
2017-10-18T04:58:00.289Z,101250
2017-10-18T05:00:26.643Z,101248
2017-10-18T05:02:54.019Z,101247
2017-10-18T05:05:20.344Z,101244
2017-10-18T05:07:46.889Z,101242
2017-10-18T05:10:13.205Z,101248
2017-10-18T05:12:39.532Z,101239
2017-10-18T05:15:06.629Z,101238
2017-10-18T05:17:32.986Z,101239
2017-10-18T05:19:59.344Z,101238
2017-10-18T05:22:25.701Z,101236
2017-10-18T05:24:51.986Z,101237
2017-10-18T05:27:19.034Z,101232
2017-10-18T05:29:46.101Z,101228
2017-10-18T05:32:12.404Z,101235
2017-10-18T05:34:38.664Z,101232
2017-10-18T05:37:04.973Z,101228
2017-10-18T05:39:32.004Z,101231
2017-10-18T05:41:58.293Z,101228
2017-10-18T05:44:24.627Z,101227
2017-10-18T05:46:50.898Z,101227
2017-10-18T05:49:17.196Z,101225
2017-10-18T05:51:43.734Z,101225
2017-10-18T05:54:11.700Z,101233
2017-10-18T05:56:38.027Z,101235
2017-10-18T05:59:04.540Z,101236
2017-10-18T06:01:30.857Z,101233
2017-10-18T06:03:57.152Z,101231
2017-10-18T06:06:23.457Z,101232
2017-10-18T06:08:49.751Z,101232
2017-10-18T06:11:16.049Z,101239
2017-10-18T06:13:43.950Z,101240
2017-10-18T06:16:10.257Z,101241
2017-10-18T06:18:37.313Z,101238
2017-10-18T06:21:04.081Z,101243
2017-10-18T06:23:30.433Z,101243
2017-10-18T06:25:56.720Z,101235
2017-10-18T06:28:23.254Z,101238
2017-10-18T06:30:49.550Z,101244
2017-10-18T06:33:15.833Z,101246
2017-10-18T06:35:42.209Z,101243
2017-10-18T06:38:08.525Z,101249
2017-10-18T06:40:34.801Z,101255
2017-10-18T06:43:01.340Z,101251
2017-10-18T06:45:27.629Z,101247
2017-10-18T06:47:53.918Z,101261
2017-10-18T06:50:20.336Z,101260
2017-10-18T06:52:46.629Z,101259
2017-10-18T06:55:12.910Z,101261
2017-10-18T06:57:39.275Z,101269
2017-10-18T07:00:05.583Z,101263
2017-10-18T07:02:31.918Z,101268
2017-10-18T07:04:58.229Z,101270
2017-10-18T07:07:24.532Z,101274
2017-10-18T07:09:51.563Z,101268
2017-10-18T07:12:18.613Z,101267
2017-10-18T07:14:45.657Z,101275
2017-10-18T07:17:12.689Z,101271
2017-10-18T07:19:39.059Z,101276
2017-10-18T07:22:05.355Z,101273
2017-10-18T07:24:31.665Z,101276
2017-10-18T07:26:58.370Z,101277
2017-10-18T07:29:24.660Z,101273
2017-10-18T07:31:50.984Z,101277
2017-10-18T07:34:17.274Z,101271
2017-10-18T07:36:43.553Z,101275
2017-10-18T07:39:10.621Z,101278
2017-10-18T07:41:37.139Z,101277
2017-10-18T07:44:04.173Z,101277
2017-10-18T07:46:30.473Z,101278
2017-10-18T07:48:56.799Z,101279
2017-10-18T07:51:23.114Z,101277
2017-10-18T07:53:49.442Z,101271
2017-10-18T07:56:15.749Z,101273
2017-10-18T07:58:42.081Z,101272
2017-10-18T08:01:08.633Z,101267
2017-10-18T08:03:34.971Z,101273
2017-10-18T08:06:01.311Z,101276
2017-10-18T08:08:27.657Z,101274
2017-10-18T08:10:53.977Z,101280
2017-10-18T08:13:21.014Z,101278
2017-10-18T08:15:47.533Z,101279
2017-10-18T08:18:13.867Z,101278
2017-10-18T08:20:40.193Z,101277
2017-10-18T08:23:06.500Z,101284
2017-10-18T08:25:39.767Z,101283
2017-10-18T08:28:06.058Z,101277
2017-10-18T08:30:32.365Z,101275
2017-10-18T08:32:58.716Z,101272
2017-10-18T08:35:25.031Z,101263
2017-10-18T08:37:51.336Z,101260
2017-10-18T08:40:18.363Z,101264
2017-10-18T08:42:44.701Z,101263
2017-10-18T08:45:11.033Z,101258
2017-10-18T08:47:37.341Z,101262
2017-10-18T08:50:03.654Z,101262
2017-10-18T08:52:29.938Z,101256
2017-10-18T08:54:56.947Z,101255
2017-10-18T08:57:23.301Z,101259
2017-10-18T08:59:49.604Z,101263
2017-10-18T09:02:15.929Z,101262
2017-10-18T09:04:42.246Z,101268
2017-10-18T09:07:08.528Z,101266
2017-10-18T09:09:35.530Z,101261
2017-10-18T09:12:01.961Z,101260
2017-10-18T09:14:28.232Z,101266
2017-10-18T09:16:55.281Z,101262
2017-10-18T09:19:22.331Z,101264
2017-10-18T09:21:49.631Z,101261
2017-10-18T09:24:15.898Z,101262
2017-10-18T09:26:42.208Z,101263
2017-10-18T09:29:08.487Z,101261
2017-10-18T09:31:35.764Z,101258
2017-10-18T09:34:02.045Z,101255
2017-10-18T09:36:28.318Z,101248
2017-10-18T09:38:54.701Z,101247
2017-10-18T09:41:20.961Z,101239
2017-10-18T09:43:47.228Z,101241
2017-10-18T09:46:13.737Z,101242
2017-10-18T09:48:40.007Z,101240
2017-10-18T09:51:06.294Z,101243
2017-10-18T09:53:32.737Z,101245
2017-10-18T09:55:58.995Z,101239
2017-10-18T09:58:25.301Z,101243
2017-10-18T10:00:51.871Z,101242
2017-10-18T10:03:18.146Z,101243
2017-10-18T10:05:44.429Z,101244
2017-10-18T10:08:10.723Z,101241
2017-10-18T10:10:36.998Z,101238
2017-10-18T10:13:03.295Z,101240
2017-10-18T10:15:29.556Z,101243
2017-10-18T10:17:55.843Z,101244
2017-10-18T10:20:22.141Z,101243
2017-10-18T10:22:48.433Z,101246
2017-10-18T10:25:14.718Z,101241
2017-10-18T10:27:41.255Z,101237
2017-10-18T10:30:07.529Z,101240
2017-10-18T10:32:33.813Z,101233
2017-10-18T10:35:00.155Z,101236
2017-10-18T10:37:26.434Z,101235
2017-10-18T10:39:53.449Z,101237
2017-10-18T10:42:19.743Z,101235
2017-10-18T10:44:46.014Z,101237
2017-10-18T10:47:12.290Z,101240
2017-10-18T10:49:38.589Z,101231
2017-10-18T10:52:05.626Z,101230
2017-10-18T10:54:31.905Z,101230
2017-10-18T10:56:58.220Z,101227
2017-10-18T10:59:25.273Z,101225
2017-10-18T11:01:51.525Z,101227
2017-10-18T11:04:17.795Z,101223
2017-10-18T11:06:44.159Z,101225
2017-10-18T11:09:10.696Z,101223
2017-10-18T11:11:37.101Z,101218
2017-10-18T11:14:04.128Z,101224
2017-10-18T11:16:30.401Z,101223
2017-10-18T11:18:56.673Z,101223
2017-10-18T11:21:22.945Z,101224
2017-10-18T11:23:49.984Z,101220
2017-10-18T11:26:16.990Z,101217
2017-10-18T11:28:43.243Z,101221
2017-10-18T11:31:09.525Z,101218
2017-10-18T11:33:35.781Z,101213
2017-10-18T11:36:02.086Z,101210
2017-10-18T11:38:28.375Z,101212
2017-10-18T11:40:54.635Z,101210
2017-10-18T11:43:20.912Z,101212
2017-10-18T11:45:47.222Z,101211
2017-10-18T11:48:13.512Z,101215
2017-10-18T11:50:40.535Z,101209
2017-10-18T11:53:07.572Z,101211
2017-10-18T11:55:34.058Z,101208
2017-10-18T11:58:00.313Z,101204
2017-10-18T12:00:26.580Z,101207
2017-10-18T12:02:53.857Z,101199
2017-10-18T12:05:20.154Z,101193
2017-10-18T12:07:46.425Z,101192
2017-10-18T12:10:12.741Z,101194
2017-10-18T12:12:39.014Z,101187
2017-10-18T12:15:05.281Z,101185
2017-10-18T12:17:32.345Z,101187
2017-10-18T12:19:59.346Z,101181
2017-10-18T12:22:25.634Z,101181
2017-10-18T12:24:51.922Z,101180
2017-10-18T12:27:18.177Z,101176
2017-10-18T12:29:45.217Z,101174
2017-10-18T12:32:12.248Z,101173
2017-10-18T12:34:38.541Z,101171
2017-10-18T12:37:04.823Z,101171
2017-10-18T12:39:31.829Z,101165
2017-10-18T12:41:59.969Z,101163
2017-10-18T12:44:26.229Z,101165
2017-10-18T12:46:52.485Z,101158
2017-10-18T12:49:19.517Z,101155
2017-10-18T12:51:46.089Z,101155
2017-10-18T12:54:12.357Z,101151
2017-10-18T12:56:38.868Z,101149
2017-10-18T12:59:05.123Z,101150
2017-10-18T13:01:31.399Z,101143
2017-10-18T13:03:58.412Z,101145
2017-10-18T13:06:24.692Z,101144
2017-10-18T13:08:50.975Z,101146
2017-10-18T13:11:17.274Z,101141
2017-10-18T13:13:43.554Z,101145
2017-10-18T13:16:10.558Z,101140
2017-10-18T13:18:36.849Z,101136
2017-10-18T13:21:03.855Z,101137
2017-10-18T13:23:30.122Z,101135
2017-10-18T13:25:57.406Z,101138
2017-10-18T13:28:23.646Z,101132
2017-10-18T13:30:49.894Z,101122
2017-10-18T13:33:17.102Z,101127
2017-10-18T13:35:43.376Z,101123
2017-10-18T13:38:09.662Z,101122
2017-10-18T13:40:36.209Z,101122
2017-10-18T13:43:02.511Z,101126
2017-10-18T13:45:28.805Z,101128
2017-10-18T13:47:55.084Z,101127
2017-10-18T13:50:21.354Z,101132
2017-10-18T13:52:47.653Z,101132
2017-10-18T13:55:13.957Z,101128
2017-10-18T13:57:40.213Z,101132
2017-10-18T14:00:06.481Z,101130
2017-10-18T14:02:32.788Z,101126
2017-10-18T14:04:59.056Z,101127
2017-10-18T14:07:26.080Z,101124
2017-10-18T14:09:52.404Z,101123
2017-10-18T14:12:18.693Z,101121
2017-10-18T14:14:44.957Z,101122
2017-10-18T14:17:11.484Z,101120
2017-10-18T14:19:37.794Z,101120
2017-10-18T14:22:04.057Z,101119
2017-10-18T14:24:30.540Z,101118
2017-10-18T14:26:56.826Z,101117
2017-10-18T14:29:23.110Z,101115
2017-10-18T14:31:49.540Z,101114
2017-10-18T14:34:15.833Z,101112
2017-10-18T14:36:42.114Z,101116
2017-10-18T14:39:08.409Z,101109
2017-10-18T14:41:35.431Z,101108
2017-10-18T14:44:01.731Z,101105
2017-10-18T14:46:28.241Z,101112
2017-10-18T14:48:54.503Z,101113
2017-10-18T14:51:20.762Z,101117
2017-10-18T14:53:48.661Z,101116
2017-10-18T14:56:14.926Z,101117
2017-10-18T14:58:41.192Z,101114
2017-10-18T15:01:08.224Z,101117
2017-10-18T15:03:34.483Z,101113
2017-10-18T15:06:00.773Z,101109
2017-10-18T15:08:27.061Z,101107
2017-10-18T15:10:53.598Z,101110
2017-10-18T15:13:19.879Z,101111
2017-10-18T15:15:46.133Z,101115
2017-10-18T15:18:12.437Z,101112
2017-10-18T15:20:38.709Z,101111
2017-10-18T15:23:04.986Z,101108
2017-10-18T15:25:31.274Z,101111
2017-10-18T15:27:58.019Z,101112
2017-10-18T15:30:24.388Z,101121
2017-10-18T15:32:50.696Z,101118
2017-10-18T15:35:16.962Z,101116
2017-10-18T15:37:43.994Z,101114
2017-10-18T15:40:10.304Z,101112
2017-10-18T15:42:36.578Z,101107
2017-10-18T15:45:03.623Z,101106
2017-10-18T15:47:30.678Z,101114
2017-10-18T15:49:57.730Z,101113
2017-10-18T15:52:24.049Z,101108
2017-10-18T15:54:51.257Z,101110
2017-10-18T15:57:17.550Z,101107
2017-10-18T15:59:43.805Z,101108
2017-10-18T16:02:10.098Z,101111
2017-10-18T16:04:36.345Z,101116
2017-10-18T16:07:02.655Z,101116
2017-10-18T16:09:29.052Z,101116
2017-10-18T16:11:55.323Z,101117
2017-10-18T16:14:21.590Z,101116
2017-10-18T16:16:48.198Z,101113
2017-10-18T16:19:14.495Z,101112
2017-10-18T16:21:41.509Z,101108
2017-10-18T16:24:08.005Z,101105
2017-10-18T16:26:34.289Z,101101
2017-10-18T16:29:00.554Z,101101
2017-10-18T16:31:26.860Z,101100
2017-10-18T16:33:53.877Z,101098
2017-10-18T16:36:20.181Z,101099
2017-10-18T16:38:46.706Z,101102
2017-10-18T16:41:12.975Z,101101
2017-10-18T16:43:39.256Z,101097
2017-10-18T16:46:05.580Z,101094
2017-10-18T16:48:31.922Z,101095
2017-10-18T16:50:58.482Z,101099
2017-10-18T16:53:25.523Z,101107
2017-10-18T16:55:51.778Z,101111
2017-10-18T16:58:18.070Z,101107
2017-10-18T17:00:44.508Z,101108
2017-10-18T17:03:10.802Z,101105
2017-10-18T17:05:37.815Z,101102
2017-10-18T17:08:04.091Z,101100
2017-10-18T17:10:30.355Z,101102
2017-10-18T17:12:56.606Z,101100
2017-10-18T17:15:22.927Z,101099
2017-10-18T17:17:49.189Z,101100
2017-10-18T17:20:16.239Z,101104
2017-10-18T17:22:43.263Z,101104
2017-10-18T17:25:09.524Z,101105
2017-10-18T17:27:36.900Z,101102
2017-10-18T17:30:03.234Z,101094
2017-10-18T17:32:29.502Z,101092
2017-10-18T17:34:55.810Z,101093
2017-10-18T17:37:22.078Z,101093
2017-10-18T17:39:49.120Z,101092
2017-10-18T17:42:15.438Z,101093
2017-10-18T17:44:41.753Z,101089
2017-10-18T17:47:08.081Z,101089
2017-10-18T17:49:34.365Z,101089
2017-10-18T17:52:00.644Z,101081
2017-10-18T17:54:27.141Z,101084
2017-10-18T17:56:53.421Z,101088
2017-10-18T17:59:19.696Z,101086
2017-10-18T18:01:46.187Z,101086
2017-10-18T18:04:12.457Z,101083
2017-10-18T18:06:38.753Z,101086
2017-10-18T18:09:05.050Z,101093
2017-10-18T18:11:31.350Z,101089
2017-10-18T18:13:57.644Z,101091
2017-10-18T18:16:24.677Z,101095
2017-10-18T18:18:50.941Z,101100
2017-10-18T18:21:17.996Z,101106
2017-10-18T18:23:44.265Z,101113
2017-10-18T18:26:10.538Z,101115
2017-10-18T18:28:37.917Z,101116
2017-10-18T18:31:04.189Z,101119
2017-10-18T18:33:30.510Z,101120
2017-10-18T18:35:57.708Z,101125
2017-10-18T18:38:24.737Z,101131
2017-10-18T18:40:51.780Z,101137
2017-10-18T18:43:18.084Z,101133
2017-10-18T18:45:44.353Z,101133
2017-10-18T18:48:11.362Z,101133
2017-10-18T18:50:37.727Z,101131
2017-10-18T18:53:04.761Z,101133
2017-10-18T18:55:31.042Z,101131
2017-10-18T18:57:57.677Z,101134
2017-10-18T19:00:23.967Z,101133
2017-10-18T19:02:51.005Z,101136
2017-10-18T19:05:17.583Z,101130
2017-10-18T19:07:44.021Z,101127
2017-10-18T19:10:10.334Z,101124
2017-10-18T19:12:36.827Z,101123
2017-10-18T19:15:03.147Z,101120
2017-10-18T19:17:29.466Z,101123
2017-10-18T19:19:55.931Z,101120
2017-10-18T19:22:23.001Z,101120
2017-10-18T19:24:50.011Z,101119
2017-10-18T19:27:16.321Z,101120
2017-10-18T19:29:42.610Z,101119
2017-10-18T19:32:09.633Z,101118
2017-10-18T19:34:35.942Z,101116
2017-10-18T19:37:02.267Z,101117
2017-10-18T19:39:29.305Z,101118
2017-10-18T19:41:55.570Z,101125
2017-10-18T19:44:22.601Z,101132
2017-10-18T19:46:48.889Z,101134
2017-10-18T19:49:15.178Z,101134
2017-10-18T19:51:42.226Z,101139
2017-10-18T19:54:09.615Z,101136
2017-10-18T19:56:35.885Z,101137
2017-10-18T19:59:02.226Z,101140
2017-10-18T20:01:28.518Z,101140
2017-10-18T20:03:54.893Z,101143
2017-10-18T20:06:21.159Z,101141
2017-10-18T20:08:47.464Z,101143
2017-10-18T20:11:14.471Z,101140
2017-10-18T20:13:40.753Z,101140
2017-10-18T20:16:07.025Z,101134
2017-10-18T20:18:34.078Z,101130
2017-10-18T20:21:00.409Z,101134
2017-10-18T20:23:26.705Z,101136
2017-10-18T20:25:53.024Z,101135
2017-10-18T20:28:19.342Z,101137
2017-10-18T20:30:46.348Z,101130
2017-10-18T20:33:12.641Z,101135
2017-10-18T20:35:39.105Z,101134
2017-10-18T20:38:05.388Z,101133
2017-10-18T20:40:32.422Z,101138
2017-10-18T20:42:59.462Z,101138
2017-10-18T20:45:26.480Z,101132
2017-10-18T20:47:52.790Z,101131
2017-10-18T20:50:19.252Z,101131
2017-10-18T20:52:45.536Z,101122
2017-10-18T20:55:11.791Z,101117
2017-10-18T20:57:38.106Z,101128
2017-10-18T21:00:04.450Z,101120
2017-10-18T21:02:30.740Z,101128
2017-10-18T21:04:57.787Z,101124
2017-10-18T21:07:24.838Z,101122
2017-10-18T21:09:51.138Z,101118
2017-10-18T21:12:17.921Z,101122
2017-10-18T21:14:44.174Z,101117
2017-10-18T21:17:10.436Z,101112
2017-10-18T21:19:36.717Z,101113
2017-10-18T21:22:02.986Z,101108
2017-10-18T21:24:29.292Z,101113
2017-10-18T21:26:56.620Z,101108
2017-10-18T21:29:22.952Z,101111
2017-10-18T21:31:49.241Z,101117
2017-10-18T21:34:17.081Z,101116
2017-10-18T21:36:43.366Z,101116
2017-10-18T21:39:09.679Z,101112
2017-10-18T21:41:36.698Z,101112
2017-10-18T21:44:03.014Z,101104
2017-10-18T21:46:29.294Z,101106
2017-10-18T21:48:55.601Z,101105
2017-10-18T21:51:22.696Z,101110
2017-10-18T21:53:48.950Z,101107
2017-10-18T21:56:15.258Z,101105
2017-10-18T21:58:41.523Z,101102
2017-10-18T22:01:07.888Z,101100
2017-10-18T22:03:34.937Z,101098
2017-10-18T22:06:02.008Z,101095
2017-10-18T22:08:28.274Z,101106
2017-10-18T22:10:54.578Z,101104
2017-10-18T22:13:20.887Z,101104
2017-10-18T22:15:47.184Z,101107
2017-10-18T22:18:14.633Z,101112
2017-10-18T22:20:40.916Z,101104
2017-10-18T22:23:07.201Z,101103
2017-10-18T22:25:34.241Z,101114
2017-10-18T22:28:00.534Z,101113
2017-10-18T22:30:27.648Z,101113
2017-10-18T22:32:54.193Z,101110
2017-10-18T22:35:20.462Z,101104
2017-10-18T22:37:46.718Z,101108
2017-10-18T22:40:14.023Z,101110
2017-10-18T22:42:40.574Z,101106
2017-10-18T22:45:06.880Z,101109
2017-10-18T22:47:33.167Z,101106
2017-10-18T22:50:00.187Z,101108
2017-10-18T22:52:26.637Z,101107
2017-10-18T22:54:52.925Z,101105
2017-10-18T22:57:19.203Z,101105
2017-10-18T22:59:46.274Z,101104
2017-10-18T23:02:12.685Z,101106
2017-10-18T23:04:39.686Z,101109
2017-10-18T23:07:06.014Z,101104
2017-10-18T23:09:32.318Z,101105
2017-10-18T23:11:58.595Z,101100
2017-10-18T23:14:24.917Z,101097
2017-10-18T23:16:51.196Z,101097
2017-10-18T23:19:18.217Z,101091
2017-10-18T23:21:44.790Z,101097
2017-10-18T23:24:11.061Z,101097
2017-10-18T23:26:37.345Z,101103
2017-10-18T23:29:03.617Z,101101
2017-10-18T23:31:29.904Z,101101
2017-10-18T23:33:56.172Z,101102
2017-10-18T23:36:22.461Z,101101
2017-10-18T23:38:48.757Z,101105
2017-10-18T23:41:15.010Z,101102
2017-10-18T23:43:42.826Z,101102
2017-10-18T23:46:09.121Z,101101
2017-10-18T23:48:35.385Z,101108
2017-10-18T23:51:01.806Z,101106
2017-10-18T23:53:28.082Z,101105
2017-10-18T23:55:55.423Z,101103
2017-10-18T23:58:22.464Z,101096
